Time;durP1;ratioP1;P1;durP2;ratioP2;P2;SDS_P1;SDS_P2;PMS_P1;PMS_P2;Temp;Humidity;BMP_temperature;BMP_pressure;BME280_temperature;BME280_humidity;BME280_pressure;Samples;Min_cycle;Max_cycle;Signal;HPM_P1;HPM_P2
2022/07/12 00:01:02;;;;;;;;;;;;;;;38.68;21.67;101209.44;4437618;32;20291;-69
2022/07/12 00:03:27;;;;;;;;;;;;;;;38.68;21.67;101203.53;4438072;32;20036;-69
2022/07/12 00:05:54;;;;;;;;;;;;;;;38.69;21.61;101207.28;4437807;32;19980;-69
2022/07/12 00:08:19;;;;;;;;;;;;;;;38.90;21.43;101204.38;4432012;32;19967;-69
2022/07/12 00:10:45;;;;;;;;;;;;;;;39.12;21.26;101209.69;4437279;32;20325;-69
2022/07/12 00:13:10;;;;;;;;;;;;;;;38.94;21.45;101207.59;4438283;32;20292;-69
2022/07/12 00:15:36;;;;;;;;;;;;;;;38.56;21.86;101205.63;4437534;32;20004;-69
2022/07/12 00:18:02;;;;;;;;;;;;;;;38.72;21.74;101220.72;4434604;32;19961;-69
2022/07/12 00:20:28;;;;;;;;;;;;;;;38.38;22.11;101213.13;4439444;32;20009;-69
2022/07/12 00:22:54;;;;;;;;;;;;;;;38.73;21.72;101208.34;4440068;32;20029;-69
2022/07/12 00:25:19;;;;;;;;;;;;;;;38.87;21.62;101205.63;4439466;32;19977;-69
2022/07/12 00:27:45;;;;;;;;;;;;;;;38.81;21.73;101205.97;4439791;32;20346;-69
2022/07/12 00:30:11;;;;;;;;;;;;;;;38.89;21.64;101214.56;4440961;32;19965;-70
2022/07/12 00:32:36;;;;;;;;;;;;;;;38.82;21.76;101213.41;4438521;32;19953;-70
2022/07/12 00:35:02;;;;;;;;;;;;;;;38.37;22.31;101207.84;4439881;32;19965;-70
2022/07/12 00:37:28;;;;;;;;;;;;;;;38.48;22.28;101204.25;4439737;32;19990;-70
2022/07/12 00:39:53;;;;;;;;;;;;;;;38.40;22.40;101212.50;4440035;32;19952;-70
2022/07/12 00:42:19;;;;;;;;;;;;;;;38.54;22.30;101208.44;4441244;32;19996;-70
2022/07/12 00:44:44;;;;;;;;;;;;;;;38.38;22.43;101203.50;4439296;32;20642;-70
2022/07/12 00:47:27;;;;;;;;;;;;;;;38.53;22.31;101209.06;4440467;32;20059;-70
2022/07/12 00:49:53;;;;;;;;;;;;;;;38.12;22.74;101210.41;4440222;32;20291;-70
2022/07/12 00:52:19;;;;;;;;;;;;;;;38.36;22.50;101212.19;4437971;32;19957;-70
2022/07/12 00:54:44;;;;;;;;;;;;;;;38.08;22.87;101207.13;4439596;32;20379;-70
2022/07/12 00:57:10;;;;;;;;;;;;;;;38.09;23.00;101196.94;4439117;32;20044;-70
2022/07/12 00:59:35;;;;;;;;;;;;;;;38.14;22.89;101192.91;4439519;32;21085;-70
2022/07/12 01:02:01;;;;;;;;;;;;;;;38.13;22.94;101191.38;4440314;32;19979;-70
2022/07/12 01:04:27;;;;;;;;;;;;;;;38.16;22.88;101182.06;4438339;32;19949;-70
2022/07/12 01:06:53;;;;;;;;;;;;;;;37.81;23.33;101175.00;4437592;32;19975;-70
2022/07/12 01:09:18;;;;;;;;;;;;;;;38.11;22.99;101170.62;4439851;32;19989;-70
2022/07/12 01:11:44;;;;;;;;;;;;;;;37.80;23.25;101171.28;4440080;32;20699;-70
2022/07/12 01:14:10;;;;;;;;;;;;;;;37.84;23.25;101183.38;4440998;32;20231;-70
2022/07/12 01:16:37;;;;;;;;;;;;;;;37.90;23.16;101185.97;4437085;32;20004;-70
2022/07/12 01:19:04;;;;;;;;;;;;;;;38.18;22.80;101175.56;4440062;32;20027;-70
2022/07/12 01:21:31;;;;;;;;;;;;;;;38.09;22.89;101185.19;4440228;32;19957;-70
2022/07/12 01:23:57;;;;;;;;;;;;;;;37.92;23.07;101186.13;4440346;32;21753;-70
2022/07/12 01:26:23;;;;;;;;;;;;;;;38.08;22.92;101177.72;4439025;32;19981;-70
2022/07/12 01:28:49;;;;;;;;;;;;;;;38.08;22.94;101186.56;4441042;32;20038;-70
2022/07/12 01:31:15;;;;;;;;;;;;;;;38.06;22.95;101193.06;4439667;32;19992;-70
2022/07/12 01:33:40;;;;;;;;;;;;;;;38.12;22.92;101193.53;4439301;32;19944;-70
2022/07/12 01:36:06;;;;;;;;;;;;;;;37.72;23.39;101196.37;4439152;32;20307;-70
2022/07/12 01:38:32;;;;;;;;;;;;;;;37.84;23.31;101197.28;4439932;32;19996;-70
2022/07/12 01:40:57;;;;;;;;;;;;;;;37.86;23.25;101185.69;4440872;32;19992;-70
2022/07/12 01:43:23;;;;;;;;;;;;;;;37.92;23.11;101194.97;4440917;32;20000;-69
2022/07/12 01:45:49;;;;;;;;;;;;;;;37.58;23.51;101184.28;4438685;32;20345;-69
2022/07/12 01:48:14;;;;;;;;;;;;;;;37.71;23.42;101188.97;4439649;32;20551;-69
2022/07/12 01:50:40;;;;;;;;;;;;;;;37.66;23.47;101179.06;4440109;32;20040;-69
2022/07/12 01:53:06;;;;;;;;;;;;;;;37.88;23.23;101180.72;4437128;32;20025;-69
2022/07/12 01:55:32;;;;;;;;;;;;;;;37.93;23.18;101185.53;4440975;32;19952;-69
2022/07/12 01:57:58;;;;;;;;;;;;;;;37.87;23.29;101188.00;4438883;32;20018;-69
2022/07/12 02:00:25;;;;;;;;;;;;;;;38.05;23.09;101190.75;4439863;32;19957;-69
2022/07/12 02:02:51;;;;;;;;;;;;;;;37.97;23.18;101188.75;4439271;32;19957;-69
2022/07/12 02:05:16;;;;;;;;;;;;;;;37.71;23.46;101189.75;4438769;32;20532;-69
2022/07/12 02:07:41;;;;;;;;;;;;;;;37.63;23.65;101191.25;4439870;32;20000;-69
2022/07/12 02:10:08;;;;;;;;;;;;;;;37.43;23.82;101192.66;4439630;32;19963;-69
2022/07/12 02:12:34;;;;;;;;;;;;;;;37.51;23.75;101202.06;4439317;32;19993;-69
2022/07/12 02:15:00;;;;;;;;;;;;;;;37.48;23.78;101215.06;4438981;32;20023;-69
2022/07/12 02:17:25;;;;;;;;;;;;;;;37.37;23.93;101212.75;4437867;32;20029;-69
2022/07/12 02:19:50;;;;;;;;;;;;;;;37.42;23.90;101209.50;4436807;32;19961;-69
2022/07/12 02:22:16;;;;;;;;;;;;;;;37.46;23.93;101209.03;4439937;32;19956;-69
2022/07/12 02:24:41;;;;;;;;;;;;;;;37.55;23.87;101211.19;4440025;32;19984;-69
2022/07/12 02:27:07;;;;;;;;;;;;;;;37.50;23.92;101209.34;4439975;32;19960;-69
2022/07/12 02:29:33;;;;;;;;;;;;;;;37.56;23.83;101203.94;4439616;32;20685;-69
2022/07/12 02:31:58;;;;;;;;;;;;;;;37.50;23.93;101206.41;4438359;32;19992;-69
2022/07/12 02:34:23;;;;;;;;;;;;;;;37.35;24.12;101203.78;4437265;32;20012;-69
2022/07/12 02:36:49;;;;;;;;;;;;;;;36.89;24.73;101206.75;4439089;32;20423;-69
2022/07/12 02:39:14;;;;;;;;;;;;;;;36.95;24.77;101204.31;4439027;32;20000;-69
2022/07/12 02:41:40;;;;;;;;;;;;;;;36.78;24.97;101215.38;4438602;32;19965;-69
2022/07/12 02:44:05;;;;;;;;;;;;;;;36.95;24.78;101206.47;4437485;32;19960;-69
2022/07/12 02:46:31;;;;;;;;;;;;;;;36.84;24.79;101207.81;4438596;32;20770;-69
2022/07/12 02:48:57;;;;;;;;;;;;;;;37.19;24.38;101209.19;4438184;32;19948;-69
2022/07/12 02:51:23;;;;;;;;;;;;;;;37.38;24.19;101209.19;4437160;32;19961;-69
2022/07/12 02:53:48;;;;;;;;;;;;;;;37.29;24.26;101209.94;4436373;32;20007;-69
2022/07/12 02:56:14;;;;;;;;;;;;;;;37.10;24.52;101212.06;4437951;32;19996;-69
2022/07/12 02:58:40;;;;;;;;;;;;;;;37.12;24.49;101203.41;4439212;32;20303;-69
2022/07/12 03:01:06;;;;;;;;;;;;;;;37.16;24.47;101192.78;4436789;32;19984;-69
2022/07/12 03:03:35;;;;;;;;;;;;;;;37.35;24.23;101195.75;4437622;32;19996;-69
2022/07/12 03:06:08;;;;;;;;;;;;;;;36.78;24.88;101194.84;4436184;32;20353;-69
2022/07/12 03:08:40;;;;;;;;;;;;;;;37.13;24.40;101196.16;4439075;32;20303;-69
2022/07/12 03:11:08;;;;;;;;;;;;;;;37.26;24.32;101198.66;4437606;32;20046;-69
2022/07/12 03:13:33;;;;;;;;;;;;;;;37.07;24.49;101187.66;4437529;32;19961;-69
2022/07/12 03:15:59;;;;;;;;;;;;;;;37.22;24.32;101192.50;4438478;32;20398;-69
2022/07/12 03:18:25;;;;;;;;;;;;;;;37.33;24.11;101198.50;4436310;32;19998;-69
2022/07/12 03:20:50;;;;;;;;;;;;;;;37.55;23.87;101191.41;4438362;32;20393;-69
2022/07/12 03:23:16;;;;;;;;;;;;;;;37.51;23.88;101194.03;4440235;32;19976;-69
2022/07/12 03:25:41;;;;;;;;;;;;;;;37.58;23.79;101187.22;4438930;32;19945;-69
2022/07/12 03:28:07;;;;;;;;;;;;;;;37.67;23.71;101191.59;4438125;32;19997;-69
2022/07/12 03:30:33;;;;;;;;;;;;;;;37.62;23.71;101198.53;4437748;32;19971;-69
2022/07/12 03:32:58;;;;;;;;;;;;;;;37.73;23.60;101203.81;4439356;32;19949;-69
2022/07/12 03:35:24;;;;;;;;;;;;;;;37.69;23.60;101209.34;4437048;32;20007;-69
2022/07/12 03:37:50;;;;;;;;;;;;;;;37.25;24.08;101200.06;4436658;32;20211;-69
2022/07/12 03:40:16;;;;;;;;;;;;;;;37.31;23.94;101210.13;4438202;32;20287;-69
2022/07/12 03:42:42;;;;;;;;;;;;;;;37.49;23.78;101211.50;4441046;32;19946;-69
2022/07/12 03:45:08;;;;;;;;;;;;;;;37.62;23.55;101211.06;4436367;32;20271;-69
2022/07/12 03:47:35;;;;;;;;;;;;;;;37.37;23.93;101204.72;4436221;32;21473;-69
2022/07/12 03:50:04;;;;;;;;;;;;;;;37.44;23.86;101197.13;4437507;32;20056;-69
2022/07/12 03:52:30;;;;;;;;;;;;;;;37.24;24.09;101190.47;4437314;32;20334;-69
2022/07/12 03:54:55;;;;;;;;;;;;;;;37.06;24.27;101188.28;4438469;32;20014;-69
2022/07/12 03:57:21;;;;;;;;;;;;;;;37.09;24.22;101189.97;4443162;32;19972;-69
2022/07/12 03:59:46;;;;;;;;;;;;;;;36.91;24.44;101185.63;4441166;32;20019;-69
2022/07/12 04:02:12;;;;;;;;;;;;;;;36.89;24.35;101186.22;4439842;32;19956;-69
2022/07/12 04:04:38;;;;;;;;;;;;;;;36.67;24.55;101184.44;4439719;32;19953;-69
2022/07/12 04:07:04;;;;;;;;;;;;;;;36.73;24.43;101182.00;4440091;32;19980;-69
2022/07/12 04:09:29;;;;;;;;;;;;;;;36.33;24.74;101172.13;4439260;32;19961;-69
2022/07/12 04:11:55;;;;;;;;;;;;;;;35.91;25.19;101160.59;4441412;32;20411;-69
2022/07/12 04:14:20;;;;;;;;;;;;;;;36.19;24.94;101145.34;4440000;32;19957;-69
2022/07/12 04:16:46;;;;;;;;;;;;;;;35.62;25.49;101142.81;4438794;32;20214;-69
2022/07/12 04:19:11;;;;;;;;;;;;;;;35.93;25.17;101144.00;4440203;32;19997;-69
2022/07/12 04:21:37;;;;;;;;;;;;;;;35.36;25.72;101134.78;4442141;32;19996;-69
2022/07/12 04:24:04;;;;;;;;;;;;;;;35.48;25.55;101140.88;4440167;32;19985;-69
2022/07/12 04:26:30;;;;;;;;;;;;;;;35.54;25.38;101141.38;4440537;32;19964;-69
2022/07/12 04:28:55;;;;;;;;;;;;;;;35.75;25.18;101142.47;4440986;32;20009;-69
2022/07/12 04:31:20;;;;;;;;;;;;;;;35.70;25.20;101140.56;4440688;32;19997;-69
2022/07/12 04:33:46;;;;;;;;;;;;;;;36.00;24.91;101143.09;4438015;32;19993;-69
2022/07/12 04:36:11;;;;;;;;;;;;;;;36.04;24.84;101134.63;4438979;32;19967;-69
2022/07/12 04:38:37;;;;;;;;;;;;;;;36.36;24.52;101141.56;4440410;32;20315;-69
2022/07/12 04:41:03;;;;;;;;;;;;;;;36.30;24.54;101136.00;4437988;32;20025;-69
2022/07/12 04:43:28;;;;;;;;;;;;;;;36.48;24.39;101145.47;4433209;32;19960;-69
2022/07/12 04:45:54;;;;;;;;;;;;;;;36.74;24.00;101135.84;4440496;32;19983;-69
2022/07/12 04:48:19;;;;;;;;;;;;;;;36.55;24.20;101147.50;4405946;32;20012;-69
2022/07/12 04:50:45;;;;;;;;;;;;;;;36.65;23.97;101157.88;4436403;32;19991;-69
2022/07/12 04:53:11;;;;;;;;;;;;;;;36.61;23.87;101166.38;4439330;32;19965;-69
2022/07/12 04:55:36;;;;;;;;;;;;;;;36.60;23.82;101176.56;4439230;32;19992;-69
2022/07/12 04:58:04;;;;;;;;;;;;;;;36.41;23.99;101190.38;4440874;32;20575;-69
2022/07/12 05:00:30;;;;;;;;;;;;;;;36.57;23.85;101189.50;4440825;32;19953;-69
2022/07/12 05:02:56;;;;;;;;;;;;;;;36.93;23.34;101177.72;4438316;32;20358;-69
2022/07/12 05:05:22;;;;;;;;;;;;;;;37.19;23.03;101188.63;4439193;32;20334;-69
2022/07/12 05:07:47;;;;;;;;;;;;;;;37.33;22.75;101195.56;4440419;32;20291;-69
2022/07/12 05:10:13;;;;;;;;;;;;;;;37.51;22.47;101196.19;4440154;32;19961;-69
2022/07/12 05:12:39;;;;;;;;;;;;;;;37.74;22.21;101208.28;4438847;32;19961;-69
2022/07/12 05:15:05;;;;;;;;;;;;;;;37.80;22.19;101212.44;4436943;32;20000;-69
2022/07/12 05:17:31;;;;;;;;;;;;;;;37.75;22.21;101215.69;4438729;32;20227;-69
2022/07/12 05:19:56;;;;;;;;;;;;;;;37.50;22.31;101210.13;4439322;32;21130;-69
2022/07/12 05:22:22;;;;;;;;;;;;;;;37.42;22.48;101197.75;4439131;32;20381;-69
2022/07/12 05:24:48;;;;;;;;;;;;;;;37.03;22.82;101177.75;4438543;32;19979;-69
2022/07/12 05:27:14;;;;;;;;;;;;;;;36.76;22.84;101192.53;4438080;32;20321;-69
2022/07/12 05:29:40;;;;;;;;;;;;;;;36.96;22.57;101179.44;4438878;32;19956;-69
2022/07/12 05:32:05;;;;;;;;;;;;;;;36.65;23.00;101163.00;4439273;32;20384;-69
2022/07/12 05:34:31;;;;;;;;;;;;;;;36.49;22.95;101161.69;4439130;32;20248;-69
2022/07/12 05:36:56;;;;;;;;;;;;;;;36.48;22.69;101187.31;4439257;32;19954;-69
2022/07/12 05:39:22;;;;;;;;;;;;;;;36.65;22.58;101177.66;4429442;32;21110;-69
2022/07/12 05:41:47;;;;;;;;;;;;;;;36.47;22.99;101173.25;4439374;32;20000;-69
2022/07/12 05:44:15;;;;;;;;;;;;;;;36.66;22.85;101174.09;4438811;32;20000;-69
2022/07/12 05:46:41;;;;;;;;;;;;;;;36.23;23.29;101186.72;4439357;32;20020;-69
2022/07/12 05:49:07;;;;;;;;;;;;;;;36.59;22.94;101185.97;4439189;32;20022;-69
2022/07/12 05:54:18;;;;;;;;;;;;;;;36.49;23.00;101193.94;4439258;32;19957;-69
2022/07/12 05:56:43;;;;;;;;;;;;;;;36.35;23.10;101192.81;4439284;32;19992;-69
2022/07/12 05:59:09;;;;;;;;;;;;;;;36.43;23.08;101190.50;4437825;32;20020;-69
2022/07/12 06:01:36;;;;;;;;;;;;;;;36.42;23.08;101183.91;4438885;32;20025;-69
2022/07/12 06:04:02;;;;;;;;;;;;;;;36.44;22.94;101183.28;4439619;32;20008;-69
2022/07/12 06:06:27;;;;;;;;;;;;;;;36.60;22.83;101178.72;4438768;32;20461;-69
2022/07/12 06:08:53;;;;;;;;;;;;;;;35.90;23.42;101195.00;4439466;32;19996;-69
2022/07/12 06:11:18;;;;;;;;;;;;;;;35.81;23.71;101194.94;4437976;32;20363;-70
2022/07/12 06:13:44;;;;;;;;;;;;;;;36.32;23.19;101196.97;4437991;32;19953;-69
2022/07/12 06:16:10;;;;;;;;;;;;;;;35.49;24.02;101200.97;4437925;32;20590;-69
2022/07/12 06:18:37;;;;;;;;;;;;;;;35.99;23.68;101205.22;4437378;32;19961;-69
2022/07/12 06:21:03;;;;;;;;;;;;;;;35.81;23.94;101207.44;4437820;32;20028;-69
2022/07/12 06:23:32;;;;;;;;;;;;;;;36.18;23.38;101203.19;4438118;32;19953;-69
2022/07/12 06:25:57;;;;;;;;;;;;;;;36.07;23.53;101202.94;4438876;32;19975;-69
2022/07/12 06:28:23;;;;;;;;;;;;;;;35.89;23.86;101205.16;4437009;32;19993;-69
2022/07/12 06:30:50;;;;;;;;;;;;;;;35.92;23.75;101203.19;4437827;32;19992;-69
2022/07/12 06:33:15;;;;;;;;;;;;;;;36.15;23.55;101200.69;4438839;32;19969;-69
2022/07/12 06:35:41;;;;;;;;;;;;;;;36.35;23.24;101201.59;4438690;32;19998;-68
2022/07/12 06:38:06;;;;;;;;;;;;;;;36.69;22.86;101207.28;4433025;32;20035;-69
2022/07/12 06:40:32;;;;;;;;;;;;;;;36.78;22.83;101212.44;4431634;32;20440;-70
2022/07/12 06:42:57;;;;;;;;;;;;;;;36.93;22.45;101215.88;4432312;32;20023;-69
2022/07/12 06:45:23;;;;;;;;;;;;;;;36.97;22.54;101219.16;4430181;32;19988;-69
2022/07/12 06:47:49;;;;;;;;;;;;;;;37.12;22.19;101221.03;4424342;32;20453;-69
2022/07/12 06:50:14;;;;;;;;;;;;;;;37.27;22.19;101212.72;4426572;32;19985;-69
2022/07/12 06:52:40;;;;;;;;;;;;;;;37.24;22.28;101213.94;4430001;32;20228;-69
2022/07/12 06:55:07;;;;;;;;;;;;;;;37.03;22.52;101215.91;4423210;32;19983;-69
2022/07/12 06:57:33;;;;;;;;;;;;;;;36.73;22.84;101201.75;4421905;32;19986;-68
2022/07/12 06:59:59;;;;;;;;;;;;;;;36.61;23.07;101219.16;4426118;32;20164;-70
2022/07/12 07:02:25;;;;;;;;;;;;;;;36.43;23.18;101217.69;4428419;32;20346;-68
2022/07/12 07:04:50;;;;;;;;;;;;;;;36.71;22.80;101214.09;4427056;32;19980;-69
2022/07/12 07:07:16;;;;;;;;;;;;;;;36.33;23.34;101213.94;4421924;32;20367;-69
2022/07/12 07:09:41;;;;;;;;;;;;;;;36.94;22.79;101216.66;4424065;32;20256;-69
2022/07/12 07:12:07;;;;;;;;;;;;;;;36.31;23.42;101215.91;4422939;32;20029;-69
2022/07/12 07:14:34;;;;;;;;;;;;;;;36.46;23.30;101219.41;4422990;32;19969;-69
2022/07/12 07:17:00;;;;;;;;;;;;;;;36.29;23.50;101212.84;4425576;32;20698;-68
2022/07/12 07:19:26;;;;;;;;;;;;;;;36.20;23.66;101215.06;4427615;32;20001;-68
2022/07/12 07:21:52;;;;;;;;;;;;;;;36.94;22.89;101223.31;4425963;32;20031;-69
2022/07/12 07:24:18;;;;;;;;;;;;;;;37.06;22.75;101218.38;4425688;32;20732;-69
2022/07/12 07:26:43;;;;;;;;;;;;;;;36.76;23.10;101213.06;4425315;32;20094;-68
2022/07/12 07:31:54;;;;;;;;;;;;;;;36.52;23.34;101222.03;4427461;32;19957;-68
2022/07/12 07:34:19;;;;;;;;;;;;;;;36.52;23.47;101224.97;4429413;32;20079;-70
2022/07/12 07:36:45;;;;;;;;;;;;;;;36.75;23.21;101219.53;4430508;32;20035;-70
2022/07/12 07:39:12;;;;;;;;;;;;;;;36.62;23.46;101228.75;4427209;32;20038;-69
2022/07/12 07:41:37;;;;;;;;;;;;;;;36.86;23.19;101224.81;4426691;32;21415;-69
2022/07/12 07:44:03;;;;;;;;;;;;;;;36.60;23.43;101222.69;4430985;32;20330;-69
2022/07/12 07:46:29;;;;;;;;;;;;;;;36.71;23.18;101231.69;4429586;32;21463;-70
2022/07/12 07:48:54;;;;;;;;;;;;;;;36.68;23.24;101232.12;4431517;32;20247;-69
2022/07/12 07:51:20;;;;;;;;;;;;;;;37.42;22.61;101232.19;4426891;32;19995;-70
2022/07/12 07:53:45;;;;;;;;;;;;;;;37.53;22.41;101228.66;4430395;32;20036;-70
2022/07/12 07:56:11;;;;;;;;;;;;;;;37.07;22.67;101216.22;4426898;32;20918;-68
2022/07/12 07:58:36;;;;;;;;;;;;;;;37.17;22.77;101217.00;4427737;32;20259;-69
2022/07/12 08:01:02;;;;;;;;;;;;;;;36.92;22.78;101222.34;4427715;32;19993;-69
2022/07/12 08:03:27;;;;;;;;;;;;;;;37.25;22.66;101226.47;4432449;32;19961;-70
2022/07/12 08:05:57;;;;;;;;;;;;;;;37.18;22.37;101230.31;4418369;32;20005;-70
2022/07/12 08:08:22;;;;;;;;;;;;;;;37.43;22.24;101228.66;4421259;32;20421;-69
2022/07/12 08:10:49;;;;;;;;;;;;;;;37.36;22.43;101220.78;4428465;32;20410;-70
2022/07/12 08:13:14;;;;;;;;;;;;;;;37.10;22.79;101212.06;4430322;32;19999;-69
2022/07/12 08:15:40;;;;;;;;;;;;;;;37.07;22.70;101222.09;4425601;32;20367;-69
2022/07/12 08:18:05;;;;;;;;;;;;;;;36.95;22.66;101218.97;4427697;32;20386;-68
2022/07/12 08:20:32;;;;;;;;;;;;;;;37.18;22.57;101233.25;4430443;32;19952;-69
2022/07/12 08:22:57;;;;;;;;;;;;;;;36.98;22.72;101238.28;4432421;32;20000;-69
2022/07/12 08:25:23;;;;;;;;;;;;;;;37.34;22.36;101240.41;4431913;32;20016;-70
2022/07/12 08:27:48;;;;;;;;;;;;;;;37.52;22.03;101239.63;4429594;32;20017;-69
2022/07/12 08:30:15;;;;;;;;;;;;;;;37.40;22.19;101237.94;4425999;32;20020;-68
2022/07/12 08:32:44;;;;;;;;;;;;;;;37.68;21.88;101248.94;4430673;32;20603;-69
2022/07/12 08:35:10;;;;;;;;;;;;;;;37.77;21.81;101254.81;4426719;32;21460;-70
2022/07/12 08:37:35;;;;;;;;;;;;;;;38.03;21.47;101252.34;4427814;32;20015;-69
2022/07/12 08:40:03;;;;;;;;;;;;;;;38.57;20.85;101254.25;4427940;32;20000;-68
2022/07/12 08:42:28;;;;;;;;;;;;;;;38.92;20.42;101257.47;4424389;32;20500;-69
2022/07/12 08:44:55;;;;;;;;;;;;;;;38.89;20.33;101259.50;4427696;32;19999;-69
2022/07/12 08:47:21;;;;;;;;;;;;;;;38.53;19.56;101251.00;4426798;32;20314;-70
2022/07/12 08:50:06;;;;;;;;;;;;;;;38.59;20.17;101250.69;4427669;32;20078;-69
2022/07/12 08:52:31;;;;;;;;;;;;;;;38.58;19.73;101241.06;4428675;32;20004;-69
2022/07/12 08:54:57;;;;;;;;;;;;;;;38.61;18.91;101250.81;4428528;32;20323;-72
2022/07/12 08:57:30;;;;;;;;;;;;;;;38.94;19.49;101251.75;4429310;32;19976;-72
2022/07/12 09:00:00;;;;;;;;;;;;;;;38.23;18.18;101248.75;4427403;32;19996;-72
2022/07/12 09:02:26;;;;;;;;;;;;;;;38.34;19.76;101241.47;4427934;32;20748;-70
2022/07/12 09:05:07;;;;;;;;;;;;;;;38.72;20.11;101250.94;4427137;32;19960;-71
2022/07/12 09:07:34;;;;;;;;;;;;;;;38.38;20.30;101256.44;4428010;32;20919;-70
2022/07/12 09:10:08;;;;;;;;;;;;;;;38.90;19.93;101258.09;4427055;32;20008;-71
2022/07/12 09:12:34;;;;;;;;;;;;;;;38.29;21.00;101249.19;4424151;32;19996;-70
2022/07/12 09:15:20;;;;;;;;;;;;;;;38.44;21.12;101262.78;4427312;32;20354;-71
2022/07/12 09:20:24;;;;;;;;;;;;;;;38.23;21.66;101281.09;3945620;31;15824222;-72
2022/07/12 09:22:52;;;;;;;;;;;;;;;38.23;21.66;101281.09;4434037;32;19993;-72
2022/07/12 09:25:18;;;;;;;;;;;;;;;37.69;21.99;101271.84;4434375;32;20052;-72
2022/07/12 09:27:49;;;;;;;;;;;;;;;37.95;21.96;101285.56;4435397;32;20452;-71
2022/07/12 09:30:14;;;;;;;;;;;;;;;37.58;22.32;101278.28;4437346;32;19992;-71
2022/07/12 09:36:10;;;;;;;;;;;;;;;37.71;22.20;101283.75;4434356;32;20310;-71
2022/07/12 09:41:15;;;;;;;;;;;;;;;38.68;21.36;101315.34;3965177;31;15725322;-72
2022/07/12 09:43:42;;;;;;;;;;;;;;;38.68;21.36;101315.34;4437813;32;19989;-72
2022/07/12 09:46:08;;;;;;;;;;;;;;;38.47;21.54;101306.44;4434956;32;20360;-71
2022/07/12 09:48:33;;;;;;;;;;;;;;;38.84;21.18;101306.94;4431008;32;19993;-71
2022/07/12 09:51:01;;;;;;;;;;;;;;;38.89;21.16;101306.59;4431728;32;20478;-71
2022/07/12 09:53:29;;;;;;;;;;;;;;;39.08;21.41;101311.66;4438285;32;19992;-71
2022/07/12 09:55:55;;;;;;;;;;;;;;;38.94;21.60;101311.41;4435100;32;20413;-71
2022/07/12 09:58:23;;;;;;;;;;;;;;;38.94;21.41;101308.44;4436020;32;20003;-71
2022/07/12 10:00:50;;;;;;;;;;;;;;;39.18;21.27;101313.16;4434940;32;21342;-71
2022/07/12 10:03:17;;;;;;;;;;;;;;;39.25;21.43;101309.25;4436369;32;19957;-72
2022/07/12 10:05:43;;;;;;;;;;;;;;;39.18;21.45;101319.06;4434230;32;20547;-71
2022/07/12 10:08:08;;;;;;;;;;;;;;;39.54;20.69;101320.88;4439485;32;19957;-71
2022/07/12 10:10:35;;;;;;;;;;;;;;;39.56;20.66;101315.09;4448159;32;20016;-72
2022/07/12 10:13:01;;;;;;;;;;;;;;;39.44;20.76;101320.94;4439349;32;20193;-72
2022/07/12 10:15:28;;;;;;;;;;;;;;;39.83;20.50;101330.28;4436754;32;19981;-73
2022/07/12 10:17:54;;;;;;;;;;;;;;;39.74;20.61;101334.06;4438525;32;19981;-71
2022/07/12 10:20:22;;;;;;;;;;;;;;;39.68;20.72;101337.38;4436306;32;20003;-72
2022/07/12 10:22:47;;;;;;;;;;;;;;;39.70;21.00;101346.31;4434717;32;20251;-71
2022/07/12 10:25:30;;;;;;;;;;;;;;;39.83;21.37;101342.09;4433322;32;20034;-72
2022/07/12 10:27:58;;;;;;;;;;;;;;;39.59;22.17;101352.16;4436101;32;20014;-71
2022/07/12 10:30:23;;;;;;;;;;;;;;;39.19;22.82;101350.03;4434959;32;20371;-71
2022/07/12 10:32:52;;;;;;;;;;;;;;;39.22;23.37;101351.72;4438972;32;19989;-71
2022/07/12 10:35:19;;;;;;;;;;;;;;;39.37;24.11;101345.44;4436551;32;19979;-71
2022/07/12 10:38:04;;;;;;;;;;;;;;;39.17;23.08;101331.47;4437653;32;20054;-71
2022/07/12 10:40:33;;;;;;;;;;;;;;;39.04;23.37;101329.81;4429546;32;20054;-71
2022/07/12 10:45:38;;;;;;;;;;;;;;;39.45;23.02;101331.31;3942632;32;15722167;-72
2022/07/12 10:48:06;;;;;;;;;;;;;;;39.45;23.02;101331.31;4426730;32;20026;-72
2022/07/12 10:56:18;;;;;;;;;;;;;;;40.23;21.89;101353.69;3951424;32;15722516;-71
2022/07/12 10:58:46;;;;;;;;;;;;;;;40.23;21.89;101353.69;4423251;32;20013;-70
2022/07/12 11:01:13;;;;;;;;;;;;;;;39.83;21.40;101347.97;4424396;32;20067;-71
2022/07/12 11:03:40;;;;;;;;;;;;;;;40.19;20.90;101341.63;4422892;32;20024;-70
2022/07/12 11:06:06;;;;;;;;;;;;;;;40.41;20.18;101349.03;4422353;32;21691;-70
2022/07/12 11:08:34;;;;;;;;;;;;;;;40.72;20.41;101357.72;4423890;32;20494;-71
2022/07/12 11:11:00;;;;;;;;;;;;;;;40.62;19.91;101351.94;4421938;32;20004;-71
2022/07/12 11:13:25;;;;;;;;;;;;;;;40.74;19.90;101346.81;4423963;32;20013;-71
2022/07/12 11:15:59;;;;;;;;;;;;;;;41.03;20.37;101338.37;4425026;32;20982;-71
2022/07/12 11:18:28;;;;;;;;;;;;;;;41.09;19.54;101338.03;4421297;32;20030;-71
2022/07/12 11:20:56;;;;;;;;;;;;;;;41.41;19.38;101343.03;4426616;32;20326;-71
2022/07/12 11:23:21;;;;;;;;;;;;;;;41.39;19.15;101351.75;4418525;32;20007;-71
2022/07/12 11:25:47;;;;;;;;;;;;;;;41.58;18.46;101350.72;4421639;32;19965;-70
2022/07/12 11:28:13;;;;;;;;;;;;;;;41.61;18.63;101338.41;4425359;32;19961;-71
2022/07/12 11:30:47;;;;;;;;;;;;;;;41.87;18.33;101342.94;4422811;32;21050;-71
2022/07/12 11:33:12;;;;;;;;;;;;;;;41.76;18.60;101328.97;4423845;32;20079;-71
2022/07/12 11:35:38;;;;;;;;;;;;;;;42.42;17.75;101338.16;4422635;32;20007;-71
2022/07/12 11:38:04;;;;;;;;;;;;;;;42.17;17.60;101335.16;4423097;32;20251;-71
2022/07/12 11:40:30;;;;;;;;;;;;;;;42.19;17.71;101353.78;4421667;32;19997;-72
2022/07/12 11:42:58;;;;;;;;;;;;;;;41.96;17.76;101347.94;4423884;32;20023;-71
2022/07/12 11:45:24;;;;;;;;;;;;;;;42.58;16.89;101353.88;4427445;32;20294;-72
2022/07/12 11:47:49;;;;;;;;;;;;;;;42.33;17.32;101357.59;4422659;32;19949;-72
2022/07/12 11:50:17;;;;;;;;;;;;;;;41.98;17.06;101344.34;4424173;32;20518;-72
2022/07/12 11:52:43;;;;;;;;;;;;;;;41.78;16.88;101352.75;4413341;32;20339;-72
2022/07/12 11:55:08;;;;;;;;;;;;;;;42.13;16.80;101365.25;4376130;32;20411;-72
2022/07/12 11:57:34;;;;;;;;;;;;;;;42.19;17.10;101353.00;4361286;32;19959;-72
2022/07/12 12:00:16;;;;;;;;;;;;;;;41.21;16.82;101351.41;4355136;32;20028;-72
2022/07/12 12:02:41;;;;;;;;;;;;;;;41.12;16.25;101336.75;4358611;32;20041;-71
2022/07/12 12:05:07;;;;;;;;;;;;;;;40.67;16.92;101335.28;4357220;32;19963;-71
2022/07/12 12:07:33;;;;;;;;;;;;;;;41.13;16.62;101332.37;4342962;32;20053;-72
2022/07/12 12:10:00;;;;;;;;;;;;;;;41.37;16.45;101322.09;4350502;32;19962;-70
2022/07/12 12:12:27;;;;;;;;;;;;;;;41.59;16.85;101322.72;4348496;32;19974;-71
2022/07/12 12:14:53;;;;;;;;;;;;;;;41.87;17.54;101327.41;4348722;32;20424;-71
2022/07/12 12:17:18;;;;;;;;;;;;;;;41.73;17.40;101333.22;4349161;32;19981;-71
2022/07/12 12:19:44;;;;;;;;;;;;;;;41.24;18.04;101343.41;4349620;32;20304;-71
2022/07/12 12:22:29;;;;;;;;;;;;;;;40.97;18.62;101352.75;4349824;32;20894;-71
2022/07/12 12:24:58;;;;;;;;;;;;;;;41.41;19.61;101357.81;4346866;32;19955;-72
2022/07/12 12:27:24;;;;;;;;;;;;;;;41.53;18.42;101352.66;4353008;32;20014;-72
2022/07/12 12:29:51;;;;;;;;;;;;;;;41.26;18.48;101352.44;4350232;32;19967;-72
2022/07/12 12:32:18;;;;;;;;;;;;;;;41.72;18.29;101355.34;4351794;32;20098;-72
2022/07/12 12:35:03;;;;;;;;;;;;;;;42.27;18.01;101357.22;4348205;32;20006;-73
2022/07/12 12:37:28;;;;;;;;;;;;;;;41.47;17.40;101335.31;4347604;32;19973;-72
2022/07/12 12:39:55;;;;;;;;;;;;;;;41.15;17.72;101344.31;4349257;32;20017;-72
2022/07/12 12:42:25;;;;;;;;;;;;;;;40.93;17.74;101351.72;4350628;32;20010;-72
2022/07/12 12:44:51;;;;;;;;;;;;;;;40.26;18.06;101345.75;4349197;32;19977;-71
2022/07/12 12:47:33;;;;;;;;;;;;;;;40.01;17.72;101337.44;4350143;32;20439;-72
2022/07/12 12:50:00;;;;;;;;;;;;;;;39.50;17.57;101344.16;4350127;32;20013;-72
2022/07/12 12:52:26;;;;;;;;;;;;;;;39.60;17.38;101336.03;4350321;32;20041;-72
2022/07/12 12:54:53;;;;;;;;;;;;;;;39.82;17.15;101327.94;4349663;32;20034;-71